Time;durP1;ratioP1;P1;durP2;ratioP2;P2;SDS_P1;SDS_P2;PMS_P1;PMS_P2;Temp;Humidity;BMP_temperature;BMP_pressure;BME280_temperature;BME280_humidity;BME280_pressure;Samples;Min_cycle;Max_cycle;Signal;HPM_P1;HPM_P2
2023/01/06 00:00:35;;;;;;;2.92;1.83;;;5.30;99.90;;;;;;5033425;28;20208;-75
2023/01/06 00:03:02;;;;;;;6.95;2.50;;;5.20;99.90;;;;;;5033728;28;20684;-75
2023/01/06 00:05:28;;;;;;;1.92;1.83;;;5.20;99.90;;;;;;5037248;28;20205;-75
2023/01/06 00:07:57;;;;;;;2.00;1.85;;;5.20;99.90;;;;;;5037154;28;20252;-75
2023/01/06 00:10:24;;;;;;;2.00;1.80;;;5.20;99.90;;;;;;5037183;28;20296;-75
2023/01/06 00:12:51;;;;;;;2.72;2.00;;;5.20;99.90;;;;;;5037164;28;20197;-75
2023/01/06 00:15:18;;;;;;;1.83;1.73;;;5.20;99.90;;;;;;5037023;28;20542;-75
2023/01/06 00:17:45;;;;;;;2.33;1.90;;;5.20;99.90;;;;;;5037019;28;20225;-75
2023/01/06 00:20:13;;;;;;;1.65;1.60;;;5.30;99.90;;;;;;5036993;28;20213;-76
2023/01/06 00:22:41;;;;;;;1.65;1.58;;;5.30;99.90;;;;;;5036993;28;20208;-76
2023/01/06 00:25:10;;;;;;;2.38;1.63;;;5.40;99.90;;;;;;5037195;28;20209;-76
2023/01/06 00:27:37;;;;;;;1.60;1.60;;;5.40;99.90;;;;;;5036778;28;20283;-76
2023/01/06 07:24:21;;;;;;;3.42;2.17;;;4.30;99.90;;;;;;5034444;28;20255;-79
2023/01/06 07:26:48;;;;;;;2.17;2.08;;;4.40;99.90;;;;;;5034555;28;20232;-78
2023/01/06 07:29:15;;;;;;;2.40;2.25;;;4.40;99.90;;;;;;5035157;28;20205;-79
2023/01/06 07:31:41;;;;;;;6.60;5.90;;;4.40;99.90;;;;;;5035586;28;20217;-79
2023/01/06 07:34:08;;;;;;;4.72;2.97;;;4.40;99.90;;;;;;5034829;28;20201;-77
2023/01/06 07:36:35;;;;;;;3.28;3.08;;;4.40;99.90;;;;;;5060567;22;20176;-76
2023/01/06 07:39:02;;;;;;;3.10;2.58;;;4.40;99.90;;;;;;5054633;28;20188;-77
2023/01/06 07:41:31;;;;;;;2.55;2.45;;;4.40;99.90;;;;;;5054066;28;20767;-76
2023/01/06 07:43:57;;;;;;;2.78;2.63;;;4.50;99.90;;;;;;5065310;28;20184;-77
2023/01/06 07:46:24;;;;;;;2.47;2.38;;;4.50;99.90;;;;;;5077545;28;20212;-76
2023/01/06 07:48:51;;;;;;;2.90;2.70;;;4.60;99.90;;;;;;5076196;28;20197;-76
2023/01/06 07:51:17;;;;;;;3.85;3.65;;;4.60;99.90;;;;;;5073499;28;20197;-76
2023/01/06 07:53:44;;;;;;;4.75;4.25;;;4.60;99.90;;;;;;5062119;28;20204;-76
2023/01/06 07:56:11;;;;;;;4.18;3.78;;;4.60;99.90;;;;;;5054777;28;20208;-77
2023/01/06 07:58:39;;;;;;;3.83;3.58;;;4.70;99.90;;;;;;5054191;28;20213;-77
2023/01/06 08:01:06;;;;;;;4.38;4.05;;;4.80;99.90;;;;;;5053957;28;20200;-77
2023/01/06 08:03:33;;;;;;;12.90;5.35;;;4.80;99.90;;;;;;5053907;28;20200;-77
2023/01/06 08:06:00;;;;;;;7.10;5.20;;;4.90;99.90;;;;;;5054055;28;20287;-77
2023/01/06 08:08:26;;;;;;;5.80;4.60;;;5.00;99.90;;;;;;5053309;28;20695;-76
2023/01/06 08:10:53;;;;;;;6.30;5.13;;;5.00;99.90;;;;;;5054788;28;20209;-76
2023/01/06 08:13:20;;;;;;;6.72;5.90;;;5.10;99.90;;;;;;5054105;28;20204;-77
2023/01/06 08:15:50;;;;;;;7.35;5.97;;;5.10;99.90;;;;;;5053711;28;20201;-77
2023/01/06 08:18:17;;;;;;;7.18;6.13;;;5.20;99.90;;;;;;5055598;28;20616;-76
2023/01/06 08:20:44;;;;;;;15.75;7.38;;;5.20;99.90;;;;;;5059661;28;20695;-76
2023/01/06 08:23:10;;;;;;;8.35;6.18;;;5.20;99.90;;;;;;5057338;28;20209;-77
2023/01/06 08:25:37;;;;;;;13.35;9.05;;;5.30;99.90;;;;;;5058875;28;20201;-76
2023/01/06 08:28:04;;;;;;;14.68;7.70;;;5.30;99.90;;;;;;5058878;28;20221;-76
2023/01/06 08:30:31;;;;;;;7.35;6.07;;;5.40;99.90;;;;;;5059199;28;20197;-77
2023/01/06 08:33:00;;;;;;;8.90;6.65;;;5.40;99.90;;;;;;5059047;28;20204;-76
2023/01/06 08:35:27;;;;;;;8.63;5.57;;;5.50;99.90;;;;;;5059907;28;20204;-77
2023/01/06 08:37:53;;;;;;;6.60;4.80;;;5.60;99.90;;;;;;5057189;28;20224;-77
2023/01/06 08:40:20;;;;;;;4.28;3.88;;;5.70;99.90;;;;;;5059070;28;20205;-77
2023/01/06 08:42:47;;;;;;;3.00;2.80;;;5.80;99.90;;;;;;5057515;28;20220;-77
2023/01/06 08:45:14;;;;;;;3.35;3.15;;;5.80;99.90;;;;;;5057182;28;20201;-76
2023/01/06 08:47:40;;;;;;;2.00;1.90;;;5.90;99.90;;;;;;5058099;28;20224;-77
2023/01/06 08:50:08;;;;;;;2.63;2.42;;;6.00;99.90;;;;;;5058255;28;20232;-77
2023/01/06 08:52:35;;;;;;;1.73;1.63;;;6.10;99.90;;;;;;5058043;28;20258;-77
2023/01/06 08:55:02;;;;;;;2.00;2.00;;;6.20;99.90;;;;;;5058266;28;20569;-77
2023/01/06 08:57:29;;;;;;;1.40;1.40;;;6.30;99.90;;;;;;5057586;28;20224;-77
2023/01/06 08:59:55;;;;;;;1.30;1.30;;;6.50;99.90;;;;;;5058953;28;20205;-77
2023/01/06 09:02:22;;;;;;;1.30;1.30;;;6.60;99.90;;;;;;5060609;28;20201;-79
2023/01/06 09:04:49;;;;;;;1.20;1.20;;;6.60;99.90;;;;;;5061405;28;20204;-78
2023/01/06 09:07:17;;;;;;;1.20;1.20;;;6.70;99.90;;;;;;5060658;28;20221;-78
2023/01/06 09:09:43;;;;;;;1.10;1.10;;;6.70;99.90;;;;;;5060335;28;20207;-78
2023/01/06 09:12:10;;;;;;;1.02;1.02;;;6.80;99.90;;;;;;5059943;28;20541;-78
2023/01/06 09:14:37;;;;;;;1.38;1.38;;;7.10;99.90;;;;;;5059714;28;20209;-78
2023/01/06 09:17:03;;;;;;;1.00;1.00;;;7.40;99.90;;;;;;5061419;28;20707;-78
2023/01/06 09:19:30;;;;;;;1.65;1.65;;;7.60;99.90;;;;;;5061306;28;20196;-78
2023/01/06 09:21:57;;;;;;;3.95;3.13;;;7.80;99.90;;;;;;5058931;28;20205;-77
2023/01/06 09:24:25;;;;;;;2.30;2.20;;;7.90;99.90;;;;;;5058568;28;20200;-79
2023/01/06 09:26:52;;;;;;;2.05;1.85;;;7.90;99.90;;;;;;5061016;28;20228;-79
2023/01/06 09:29:20;;;;;;;2.17;2.08;;;7.90;99.90;;;;;;5059628;28;20197;-76
2023/01/06 09:31:46;;;;;;;1.30;1.30;;;7.90;99.90;;;;;;5055778;28;20629;-76
2023/01/06 09:34:13;;;;;;;1.40;1.40;;;8.00;99.90;;;;;;5055417;28;20670;-69
2023/01/06 09:36:40;;;;;;;1.00;1.00;;;8.00;99.90;;;;;;5054515;28;20302;-69
2023/01/06 09:39:07;;;;;;;1.63;1.52;;;8.00;99.90;;;;;;5055627;28;20181;-69
2023/01/06 09:42:09;;;;;;;3.58;3.28;;;8.10;99.90;;;;;;5055593;28;20280;-69
2023/01/06 09:44:45;;;;;;;2.05;1.95;;;8.10;99.90;;;;;;5055539;28;20192;-68
2023/01/06 09:47:16;;;;;;;1.80;1.80;;;8.10;99.90;;;;;;5055279;28;20223;-75
2023/01/06 09:49:46;;;;;;;1.42;1.33;;;8.10;99.90;;;;;;5055619;28;20193;-77
2023/01/06 09:52:23;;;;;;;1.55;1.55;;;8.10;99.90;;;;;;5055747;28;20185;-76
2023/01/06 09:54:55;;;;;;;1.30;1.30;;;8.10;99.90;;;;;;5056058;28;20191;-76
2023/01/06 09:57:30;;;;;;;1.30;1.20;;;8.10;99.90;;;;;;5055469;28;20249;-75
2023/01/06 10:00:00;;;;;;;2.35;2.22;;;8.10;99.90;;;;;;5055578;28;20188;-75
2023/01/06 10:02:33;;;;;;;1.55;1.55;;;8.10;99.90;;;;;;5055752;28;20196;-74
2023/01/06 10:05:00;;;;;;;3.33;1.38;;;8.10;99.90;;;;;;5055929;28;20655;-76
2023/01/06 10:07:34;;;;;;;1.50;1.50;;;8.10;99.90;;;;;;5058695;28;20237;-79
2023/01/06 10:10:15;;;;;;;2.75;2.65;;;8.10;99.90;;;;;;5060470;28;20218;-81
2023/01/06 10:12:54;;;;;;;3.03;2.83;;;8.20;99.90;;;;;;5057854;28;20647;-79
2023/01/06 10:15:30;;;;;;;3.15;2.85;;;8.20;99.90;;;;;;5058055;28;20196;-81
2023/01/06 10:18:08;;;;;;;4.22;3.83;;;8.30;99.90;;;;;;5057117;28;20219;-78
2023/01/06 10:20:54;;;;;;;2.63;2.42;;;8.30;99.90;;;;;;5057873;28;20264;-77
2023/01/06 10:23:44;;;;;;;2.30;2.10;;;8.20;99.90;;;;;;5056046;28;20195;-76
2023/01/06 10:26:13;;;;;;;5.60;2.20;;;8.30;99.90;;;;;;5028923;28;20209;-77
2023/01/06 10:28:43;;;;;;;2.47;2.30;;;8.30;99.90;;;;;;5056507;28;20232;-76
2023/01/06 10:31:14;;;;;;;3.15;2.95;;;8.20;99.90;;;;;;5055439;28;20205;-78
2023/01/06 10:33:46;;;;;;;3.90;3.30;;;8.30;99.90;;;;;;5056198;28;20615;-77
2023/01/06 10:36:15;;;;;;;2.40;2.20;;;8.30;99.90;;;;;;5057285;28;20196;-77
2023/01/06 10:38:44;;;;;;;2.40;2.30;;;8.20;99.90;;;;;;5065987;28;20683;-78
2023/01/06 10:41:21;;;;;;;2.25;1.80;;;8.20;99.90;;;;;;5058203;28;20205;-79
2023/01/06 10:43:49;;;;;;;1.17;1.17;;;8.20;99.90;;;;;;5056334;28;20185;-79
2023/01/06 10:46:16;;;;;;;1.58;1.48;;;8.30;99.90;;;;;;5055783;28;20228;-78
2023/01/06 10:48:44;;;;;;;1.65;1.55;;;8.30;99.90;;;;;;5057502;28;20216;-79
2023/01/06 10:51:35;;;;;;;3.83;3.42;;;8.30;99.90;;;;;;5060870;28;20211;-80
2023/01/06 10:54:05;;;;;;;3.90;2.70;;;8.20;99.90;;;;;;5057439;28;20641;-78
2023/01/06 10:56:34;;;;;;;4.38;3.97;;;8.20;99.90;;;;;;5056162;28;20236;-77
2023/01/06 10:59:07;;;;;;;4.63;3.83;;;8.20;99.90;;;;;;5061025;28;20204;-78
2023/01/06 11:01:36;;;;;;;2.20;2.10;;;8.30;99.90;;;;;;5059750;28;20196;-80
2023/01/06 11:04:08;;;;;;;2.45;2.35;;;8.30;99.90;;;;;;5060108;28;20289;-82
2023/01/06 11:06:36;;;;;;;1.75;1.65;;;8.30;99.90;;;;;;5059245;28;20188;-79
2023/01/06 11:09:07;;;;;;;1.80;1.80;;;8.30;99.90;;;;;;5058799;28;20228;-79
2023/01/06 11:11:47;;;;;;;1.17;1.17;;;8.40;99.90;;;;;;5059203;28;20192;-79
2023/01/06 11:14:19;;;;;;;3.35;2.22;;;8.40;99.90;;;;;;5058601;28;20184;-79
2023/01/06 11:16:55;;;;;;;2.05;1.95;;;8.50;99.90;;;;;;5056329;28;20307;-78
2023/01/06 11:19:30;;;;;;;2.45;2.25;;;8.60;99.90;;;;;;5057153;28;20180;-79
2023/01/06 11:21:57;;;;;;;2.20;2.00;;;8.60;99.90;;;;;;5057695;28;20203;-77
2023/01/06 11:24:25;;;;;;;1.73;1.70;;;8.70;99.90;;;;;;5056745;28;20197;-78
2023/01/06 11:26:54;;;;;;;5.57;4.07;;;8.80;99.90;;;;;;5056114;28;20247;-77
2023/01/06 11:29:27;;;;;;;3.60;3.13;;;8.80;99.90;;;;;;5055945;28;20742;-77
2023/01/06 11:31:55;;;;;;;2.67;2.47;;;8.90;99.90;;;;;;5056966;28;20547;-78
2023/01/06 11:34:23;;;;;;;1.08;1.08;;;8.90;99.90;;;;;;5055480;28;20573;-77
2023/01/06 11:36:51;;;;;;;1.00;1.00;;;8.90;99.90;;;;;;5054223;28;20343;-77
2023/01/06 11:39:25;;;;;;;1.40;1.40;;;8.80;99.90;;;;;;5055801;28;20181;-78
2023/01/06 11:41:53;;;;;;;0.90;0.90;;;8.90;99.90;;;;;;5055963;28;20188;-77
2023/01/06 11:44:28;;;;;;;1.05;0.75;;;8.90;99.90;;;;;;5056534;28;20205;-78
2023/01/06 11:46:58;;;;;;;0.85;0.85;;;9.00;99.90;;;;;;5054651;28;20220;-77
2023/01/06 11:49:29;;;;;;;1.90;1.80;;;9.00;99.90;;;;;;5057147;28;20224;-78
2023/01/06 11:52:00;;;;;;;1.10;0.90;;;9.00;99.90;;;;;;5054603;28;20185;-80
2023/01/06 11:54:32;;;;;;;1.00;1.00;;;9.10;99.90;;;;;;5054641;28;20276;-77
2023/01/06 11:57:01;;;;;;;1.05;0.98;;;9.30;99.90;;;;;;5054572;28;20311;-77
2023/01/06 11:59:42;;;;;;;0.85;0.85;;;9.20;99.90;;;;;;5056456;28;20203;-76
2023/01/06 12:02:17;;;;;;;1.30;1.30;;;9.20;99.90;;;;;;5058215;28;20640;-79
2023/01/06 12:04:49;;;;;;;1.70;1.60;;;9.30;99.90;;;;;;5062093;28;20180;-78
2023/01/06 12:07:23;;;;;;;1.80;1.70;;;9.20;99.90;;;;;;5061296;28;20228;-78
2023/01/06 12:09:51;;;;;;;1.85;1.75;;;9.30;99.90;;;;;;5061852;28;20547;-78
2023/01/06 12:12:21;;;;;;;2.08;1.92;;;9.30;99.90;;;;;;5060667;28;20333;-78
2023/01/06 12:14:49;;;;;;;1.63;1.52;;;9.40;99.90;;;;;;5061243;28;20660;-79
2023/01/06 12:17:33;;;;;;;1.65;1.60;;;9.30;99.90;;;;;;5059508;28;20227;-78
2023/01/06 12:20:03;;;;;;;1.65;1.55;;;9.30;99.90;;;;;;5061929;28;20546;-79
2023/01/06 12:22:36;;;;;;;2.05;1.80;;;9.30;99.90;;;;;;5061499;28;20200;-79
2023/01/06 12:25:06;;;;;;;1.85;1.73;;;9.20;99.90;;;;;;5059905;28;20193;-78
2023/01/06 12:27:40;;;;;;;1.30;1.25;;;9.30;99.90;;;;;;5064470;28;20746;-79
2023/01/06 12:30:17;;;;;;;2.15;2.05;;;9.30;99.90;;;;;;5066622;28;20205;-79
2023/01/06 12:32:48;;;;;;;1.30;1.20;;;9.30;99.90;;;;;;5067995;28;20235;-82
2023/01/06 12:35:20;;;;;;;1.58;1.48;;;9.40;99.90;;;;;;5067377;28;20211;-83
2023/01/06 12:37:53;;;;;;;3.35;2.50;;;9.40;99.90;;;;;;5067867;28;20238;-80
2023/01/06 12:40:27;;;;;;;1.60;1.50;;;9.30;99.90;;;;;;5067635;28;20684;-80
2023/01/06 12:43:01;;;;;;;1.10;1.10;;;9.30;99.90;;;;;;5068802;28;20184;-81
2023/01/06 12:45:36;;;;;;;2.08;0.95;;;9.30;99.90;;;;;;5070045;28;20215;-81
2023/01/06 12:48:11;;;;;;;1.00;1.00;;;9.40;99.90;;;;;;5066769;28;20261;-81
2023/01/06 12:50:42;;;;;;;1.10;1.10;;;9.40;99.90;;;;;;5066067;28;20196;-81
2023/01/06 12:53:15;;;;;;;1.38;1.33;;;9.40;99.90;;;;;;5066871;28;20189;-80
2023/01/06 12:55:48;;;;;;;0.90;0.90;;;9.50;99.90;;;;;;5065363;28;20228;-78
2023/01/06 12:58:25;;;;;;;1.40;1.30;;;9.60;99.90;;;;;;5066306;28;20221;-80
2023/01/06 13:00:57;;;;;;;0.90;0.90;;;9.60;99.90;;;;;;5066308;28;20264;-79
2023/01/06 13:03:59;;;;;;;2.42;1.55;;;9.60;99.90;;;;;;5066709;28;20222;-80
2023/01/06 13:06:37;;;;;;;1.10;1.10;;;9.60;99.90;;;;;;5046580;28;20208;-80
2023/01/06 13:09:16;;;;;;;0.65;0.65;;;9.60;99.90;;;;;;5064362;28;20200;-80
2023/01/06 13:12:01;;;;;;;0.80;0.80;;;9.40;99.90;;;;;;5064309;28;20192;-79
2023/01/06 13:14:37;;;;;;;1.00;1.00;;;9.40;99.90;;;;;;5064707;28;20630;-80
2023/01/06 13:17:08;;;;;;;1.00;1.00;;;9.30;99.90;;;;;;5067298;28;20216;-83
2023/01/06 13:19:43;;;;;;;1.00;1.00;;;9.20;99.90;;;;;;5068480;28;20551;-80
2023/01/06 13:22:14;;;;;;;0.95;0.95;;;9.20;99.90;;;;;;5068181;28;20181;-80
2023/01/06 13:35:29;;;;;;;3.00;2.65;;;9.00;99.90;;;;;;5135030;22;20232;-76
2023/01/06 13:38:13;;;;;;;2.40;2.20;;;9.00;99.90;;;;;;5056739;28;20196;-76
2023/01/06 13:40:40;;;;;;;2.15;1.50;;;8.90;99.90;;;;;;5056842;28;20195;-76
2023/01/06 13:43:16;;;;;;;2.72;2.53;;;8.80;99.90;;;;;;5056254;28;20233;-75
2023/01/06 13:45:46;;;;;;;2.30;2.20;;;8.80;99.90;;;;;;5056491;28;20184;-76
2023/01/06 15:14:02;;;;;;;2.55;2.35;;;7.90;99.90;;;;;;5872078;22;20780;-74
2023/01/06 15:16:34;;;;;;;1.98;1.88;;;7.90;99.90;;;;;;5054056;28;20228;-74
2023/01/06 15:19:01;;;;;;;2.28;2.08;;;7.80;99.90;;;;;;5054283;28;20184;-74
2023/01/06 15:21:28;;;;;;;2.58;2.13;;;7.80;99.90;;;;;;5054293;28;20204;-74
2023/01/06 15:23:55;;;;;;;1.92;1.88;;;7.80;99.90;;;;;;5053859;28;20228;-74
2023/01/06 15:26:25;;;;;;;2.55;1.50;;;7.80;99.90;;;;;;5053696;28;20211;-74
2023/01/06 15:28:59;;;;;;;2.55;2.45;;;7.80;99.90;;;;;;5054803;28;20608;-73
2023/01/06 15:31:29;;;;;;;1.80;1.80;;;7.80;99.90;;;;;;5053725;28;20675;-73
2023/01/06 15:33:56;;;;;;;1.92;1.83;;;7.70;99.90;;;;;;5054202;28;20246;-72
2023/01/06 15:36:24;;;;;;;2.15;2.05;;;7.70;99.90;;;;;;5053953;28;20559;-72
2023/01/06 15:38:53;;;;;;;2.08;1.98;;;7.70;99.90;;;;;;5053704;28;20200;-74
2023/01/06 15:41:32;;;;;;;2.40;2.30;;;7.70;99.90;;;;;;5053694;28;20204;-73
2023/01/06 15:43:59;;;;;;;2.10;2.10;;;7.70;99.90;;;;;;5053660;28;20228;-74
2023/01/06 15:46:39;;;;;;;1.50;1.45;;;7.70;99.90;;;;;;5053820;28;20184;-74
2023/01/06 15:49:11;;;;;;;1.20;1.20;;;7.70;99.90;;;;;;5053538;28;20204;-74
2023/01/06 15:51:38;;;;;;;1.20;1.20;;;7.70;99.90;;;;;;5053990;28;20189;-75
2023/01/06 15:54:04;;;;;;;1.70;1.60;;;7.60;99.90;;;;;;5053577;28;20248;-74
2023/01/06 15:56:32;;;;;;;1.90;1.80;;;7.60;99.90;;;;;;5053705;28;20224;-74
2023/01/06 15:58:59;;;;;;;2.80;2.33;;;7.60;99.90;;;;;;5053720;28;20208;-73
2023/01/06 16:01:27;;;;;;;1.80;1.80;;;7.60;99.90;;;;;;5053650;28;20615;-73
2023/01/06 16:03:56;;;;;;;2.80;1.73;;;7.60;99.90;;;;;;5053393;28;20231;-73
2023/01/06 16:06:27;;;;;;;1.98;1.88;;;7.50;99.90;;;;;;5053597;28;20238;-75
2023/01/06 16:09:14;;;;;;;1.88;1.73;;;7.50;99.90;;;;;;5053290;28;20219;-76
2023/01/06 16:11:56;;;;;;;1.60;1.60;;;7.50;99.90;;;;;;5052785;28;20204;-77
2023/01/06 16:14:28;;;;;;;1.52;1.52;;;7.50;99.90;;;;;;5053159;28;20227;-77
2023/01/06 16:17:04;;;;;;;1.55;1.45;;;7.50;99.90;;;;;;5053140;28;20208;-75
2023/01/06 16:19:32;;;;;;;5.00;4.60;;;7.50;99.90;;;;;;5053174;28;20187;-75
2023/01/06 16:22:03;;;;;;;2.70;2.50;;;7.50;99.90;;;;;;5053229;28;20201;-76
2023/01/06 16:24:30;;;;;;;2.53;2.42;;;7.50;99.90;;;;;;5053380;28;20224;-77
2023/01/06 16:27:00;;;;;;;2.13;2.03;;;7.40;99.90;;;;;;5053405;28;20200;-76
2023/01/06 16:29:30;;;;;;;1.73;1.73;;;7.40;99.90;;;;;;5053291;28;20205;-76
2023/01/06 16:31:57;;;;;;;1.88;1.80;;;7.30;99.90;;;;;;5053479;28;20185;-76
2023/01/06 16:34:27;;;;;;;1.80;1.70;;;7.30;99.90;;;;;;5053250;28;20227;-76
2023/01/06 16:36:56;;;;;;;1.85;1.75;;;7.40;99.90;;;;;;5053627;28;20208;-77
2023/01/06 16:39:24;;;;;;;1.70;1.60;;;7.30;99.90;;;;;;5053374;28;20822;-76
2023/01/06 16:42:41;;;;;;;1.73;1.73;;;7.30;99.90;;;;;;5054858;28;20181;-75
2023/01/06 16:45:16;;;;;;;1.50;1.50;;;7.30;99.90;;;;;;5054240;28;20217;-74
2023/01/06 16:47:44;;;;;;;1.83;1.70;;;7.30;99.90;;;;;;5057223;28;20207;-74
2023/01/06 16:50:16;;;;;;;1.73;1.73;;;7.30;99.90;;;;;;5056896;28;20220;-75
2023/01/06 16:52:43;;;;;;;2.28;2.17;;;7.30;99.90;;;;;;5056959;28;20219;-74
2023/01/06 16:55:13;;;;;;;2.65;2.55;;;7.20;99.90;;;;;;5056732;28;20225;-74
2023/01/06 16:57:40;;;;;;;4.97;4.47;;;7.20;99.90;;;;;;5057278;28;20201;-75
2023/01/06 17:00:13;;;;;;;6.72;5.30;;;7.20;99.90;;;;;;5056698;28;20200;-75
2023/01/06 17:02:40;;;;;;;10.25;7.07;;;7.20;99.90;;;;;;5056576;28;20624;-74
2023/01/06 17:05:18;;;;;;;9.55;6.82;;;7.20;99.90;;;;;;5056774;28;20221;-75
2023/01/06 17:07:45;;;;;;;9.73;7.25;;;7.10;99.90;;;;;;5056763;28;20184;-75
2023/01/06 17:10:14;;;;;;;11.85;8.88;;;7.10;99.90;;;;;;5056565;28;20224;-74
2023/01/06 17:15:25;;;;;;;7.20;6.50;;;7.10;99.90;;;;;;5056267;28;20184;-74
2023/01/06 17:17:52;;;;;;;7.70;6.90;;;7.10;99.90;;;;;;5056139;28;20216;-74
2023/01/06 17:20:20;;;;;;;7.03;6.43;;;7.10;99.90;;;;;;5056140;28;20199;-74
2023/01/06 17:22:49;;;;;;;7.85;6.60;;;7.10;99.90;;;;;;5056378;28;20212;-76
2023/01/06 17:25:16;;;;;;;7.93;5.82;;;7.10;99.90;;;;;;5056111;28;20224;-77
2023/01/06 17:27:44;;;;;;;5.43;4.30;;;7.10;99.90;;;;;;5056727;28;20200;-76
2023/01/06 17:30:18;;;;;;;3.45;3.25;;;7.10;99.90;;;;;;5056623;28;20252;-75
2023/01/06 17:32:46;;;;;;;2.72;2.58;;;7.10;99.90;;;;;;5056508;28;20189;-76
2023/01/06 17:35:25;;;;;;;2.03;2.03;;;7.00;99.90;;;;;;5056533;28;20224;-76
2023/01/06 17:37:52;;;;;;;2.40;2.40;;;7.00;99.90;;;;;;5056366;28;20267;-77
2023/01/06 17:40:26;;;;;;;2.40;2.40;;;7.00;99.90;;;;;;5056458;28;20201;-77
2023/01/06 17:43:00;;;;;;;2.58;2.50;;;7.00;99.90;;;;;;5056424;28;20184;-77
2023/01/06 17:45:28;;;;;;;3.20;3.10;;;7.00;99.90;;;;;;5056182;28;20189;-75
2023/01/06 17:47:55;;;;;;;3.30;3.10;;;7.00;99.90;;;;;;5056117;28;20207;-76
2023/01/06 17:50:31;;;;;;;3.05;2.88;;;7.00;99.90;;;;;;5055924;28;20227;-76
2023/01/06 17:55:57;;;;;;;2.72;2.63;;;7.00;99.90;;;;;;5055896;28;20184;-76
2023/01/06 17:58:29;;;;;;;2.95;2.85;;;7.00;99.90;;;;;;5054843;28;20185;-76
2023/01/06 18:00:56;;;;;;;2.70;2.60;;;7.00;99.90;;;;;;5055468;28;20181;-77
2023/01/06 18:03:24;;;;;;;3.83;3.53;;;7.00;99.90;;;;;;5055361;28;20228;-76
2023/01/06 18:06:01;;;;;;;2.63;2.53;;;6.90;99.90;;;;;;5055412;28;20201;-76
2023/01/06 18:08:31;;;;;;;2.75;2.65;;;6.90;99.90;;;;;;5055525;28;20192;-75
2023/01/06 18:11:19;;;;;;;3.80;3.50;;;6.90;99.90;;;;;;5055081;28;20695;-74
2023/01/06 18:13:49;;;;;;;2.90;2.80;;;6.90;99.90;;;;;;5055941;28;20232;-75
2023/01/06 18:16:26;;;;;;;2.60;2.50;;;6.90;99.90;;;;;;5056365;28;20730;-75
2023/01/06 18:18:56;;;;;;;2.20;2.10;;;6.90;99.90;;;;;;5057040;28;20205;-75
2023/01/06 18:21:31;;;;;;;1.73;1.63;;;6.90;99.90;;;;;;5057628;28;20228;-74
2023/01/06 18:23:57;;;;;;;2.55;2.45;;;6.90;99.90;;;;;;5055340;28;20632;-75
2023/01/06 18:26:34;;;;;;;3.28;3.10;;;6.90;99.90;;;;;;5055858;28;20205;-75
2023/01/06 18:29:13;;;;;;;2.08;2.00;;;6.90;99.90;;;;;;5054732;28;20200;-75
2023/01/06 18:31:40;;;;;;;1.98;1.88;;;6.80;99.90;;;;;;5055026;28;20262;-75
2023/01/06 18:34:26;;;;;;;2.80;2.45;;;6.80;99.90;;;;;;5054741;28;20228;-74
2023/01/06 18:36:55;;;;;;;2.05;2.00;;;6.80;99.90;;;;;;5054616;28;20740;-75
2023/01/06 18:39:25;;;;;;;1.95;1.88;;;6.80;99.90;;;;;;5054733;28;20208;-75
2023/01/06 18:42:04;;;;;;;4.55;1.50;;;6.80;99.90;;;;;;5054835;28;20201;-74
2023/01/06 18:44:31;;;;;;;1.50;1.50;;;6.80;99.90;;;;;;5054154;28;20699;-75
2023/01/06 18:46:59;;;;;;;1.90;1.80;;;6.80;99.90;;;;;;5054752;28;20204;-76
2023/01/06 18:49:31;;;;;;;2.47;2.38;;;6.80;99.90;;;;;;5054448;28;20204;-74
2023/01/06 18:52:03;;;;;;;3.38;3.28;;;6.80;99.90;;;;;;5055198;28;20181;-75
2023/01/06 18:54:29;;;;;;;3.10;2.90;;;6.80;99.90;;;;;;5054074;28;20803;-75
2023/01/06 18:56:56;;;;;;;3.33;3.00;;;6.80;99.90;;;;;;5054562;28;20200;-75
2023/01/06 18:59:27;;;;;;;3.50;3.30;;;6.80;99.90;;;;;;5054375;28;20204;-75
2023/01/06 19:01:54;;;;;;;3.30;3.13;;;6.80;99.90;;;;;;5054429;28;20280;-75
2023/01/06 19:04:27;;;;;;;3.47;3.20;;;6.80;99.90;;;;;;5054540;28;20220;-74
2023/01/06 19:06:57;;;;;;;3.38;3.17;;;6.70;99.90;;;;;;5053934;28;20647;-76
2023/01/06 19:09:32;;;;;;;3.45;3.25;;;6.70;99.90;;;;;;5053446;28;20192;-74
2023/01/06 19:12:11;;;;;;;3.78;3.47;;;6.70;99.90;;;;;;5054183;28;20227;-75
2023/01/06 19:14:41;;;;;;;2.78;2.67;;;6.70;99.90;;;;;;5053689;28;20703;-75
2023/01/06 19:17:20;;;;;;;3.08;2.78;;;6.70;99.90;;;;;;5054018;28;20211;-75
2023/01/06 19:19:50;;;;;;;2.70;2.50;;;6.60;99.90;;;;;;5053930;28;20189;-75
2023/01/06 19:22:22;;;;;;;2.72;2.50;;;6.60;99.90;;;;;;5054165;28;20209;-74
2023/01/06 19:24:55;;;;;;;2.50;2.40;;;6.50;99.90;;;;;;5053713;28;20228;-75
2023/01/06 19:27:41;;;;;;;2.58;2.47;;;6.50;99.90;;;;;;5053916;28;20184;-75
2023/01/06 19:30:39;;;;;;;4.55;3.28;;;6.50;99.90;;;;;;5053951;28;20236;-75
2023/01/06 19:33:36;;;;;;;5.25;2.72;;;6.50;99.90;;;;;;5049407;28;20201;-75
2023/01/06 19:36:38;;;;;;;2.97;2.80;;;6.50;99.90;;;;;;5053882;28;20193;-75
2023/01/06 19:39:26;;;;;;;2.67;2.55;;;6.50;99.90;;;;;;5053767;28;20283;-75
2023/01/06 19:41:57;;;;;;;2.90;2.70;;;6.50;99.90;;;;;;5053690;28;20192;-73
2023/01/06 19:44:30;;;;;;;3.38;3.05;;;6.40;99.90;;;;;;5053648;28;20232;-74
2023/01/06 19:46:57;;;;;;;4.40;3.47;;;6.40;99.90;;;;;;5053550;28;20189;-74
2023/01/06 19:49:30;;;;;;;3.30;3.10;;;6.40;99.90;;;;;;5054065;28;20216;-74
2023/01/06 19:51:57;;;;;;;3.67;3.40;;;6.40;99.90;;;;;;5053620;28;20212;-75
2023/01/06 19:54:26;;;;;;;4.70;3.90;;;6.40;99.90;;;;;;5053583;28;20220;-75
2023/01/06 19:56:56;;;;;;;3.75;3.45;;;6.30;99.90;;;;;;5053924;28;20208;-75
2023/01/06 19:59:25;;;;;;;3.58;3.30;;;6.30;99.90;;;;;;5053670;28;20204;-75
2023/01/06 20:01:58;;;;;;;3.28;3.08;;;6.30;99.90;;;;;;5053384;28;20656;-76
2023/01/06 20:04:27;;;;;;;4.40;4.00;;;6.30;99.90;;;;;;5053768;28;20230;-73
2023/01/06 20:06:54;;;;;;;4.47;4.18;;;6.30;99.90;;;;;;5053858;28;20203;-73
2023/01/06 20:09:21;;;;;;;9.68;6.10;;;6.30;99.90;;;;;;5053551;28;20703;-74
2023/01/06 20:11:48;;;;;;;14.88;8.85;;;6.30;99.90;;;;;;5053602;28;20204;-74
2023/01/06 20:14:16;;;;;;;10.95;6.60;;;6.30;99.90;;;;;;5053247;28;20712;-74
2023/01/06 20:16:43;;;;;;;5.88;5.38;;;6.20;99.90;;;;;;5053484;28;20212;-74
2023/01/06 20:19:10;;;;;;;4.60;4.20;;;6.30;99.90;;;;;;5053852;28;20203;-73
2023/01/06 20:21:38;;;;;;;4.45;4.07;;;6.30;99.90;;;;;;5057225;28;20205;-75
2023/01/06 20:24:06;;;;;;;4.35;4.10;;;6.30;99.90;;;;;;5057484;28;20255;-75
2023/01/06 20:26:34;;;;;;;4.30;4.00;;;6.30;99.90;;;;;;5057478;28;20207;-75
2023/01/06 20:29:00;;;;;;;4.50;4.20;;;6.30;99.90;;;;;;5057078;28;20243;-75
2023/01/06 20:31:28;;;;;;;4.97;4.45;;;6.30;99.90;;;;;;5057386;28;20714;-76
2023/01/06 20:33:55;;;;;;;5.80;5.30;;;6.30;99.90;;;;;;5057364;28;20251;-74
2023/01/06 20:36:22;;;;;;;4.30;4.00;;;6.30;99.90;;;;;;5057448;28;20211;-74
2023/01/06 20:38:48;;;;;;;4.32;4.03;;;6.30;99.90;;;;;;5056944;28;20201;-73
2023/01/06 20:41:15;;;;;;;3.97;3.78;;;6.30;99.90;;;;;;5057106;28;20205;-75
2023/01/06 20:43:42;;;;;;;4.03;3.72;;;6.30;99.90;;;;;;5056783;28;20707;-74
2023/01/06 20:46:08;;;;;;;4.95;4.65;;;6.20;99.90;;;;;;5056912;28;20209;-74
2023/01/06 20:48:36;;;;;;;6.18;5.68;;;6.30;99.90;;;;;;5057192;28;20212;-74
2023/01/06 20:51:03;;;;;;;6.05;5.65;;;6.20;99.90;;;;;;5056975;28;20219;-75
2023/01/06 20:53:30;;;;;;;6.45;5.90;;;6.20;99.90;;;;;;5056889;28;20225;-74
2023/01/06 20:55:56;;;;;;;7.50;6.80;;;6.30;99.90;;;;;;5056960;28;20205;-74
2023/01/06 20:58:23;;;;;;;8.25;7.00;;;6.30;99.90;;;;;;5056729;28;20201;-75
2023/01/06 21:00:50;;;;;;;8.43;7.25;;;6.30;99.90;;;;;;5056710;28;20212;-75
2023/01/06 21:03:16;;;;;;;8.73;7.82;;;6.30;99.90;;;;;;5056668;28;20203;-73
2023/01/06 21:05:44;;;;;;;8.55;7.15;;;6.30;99.90;;;;;;5056624;28;20205;-74
2023/01/06 21:08:11;;;;;;;6.85;6.10;;;6.30;99.90;;;;;;5056678;28;20205;-74
2023/01/06 21:10:38;;;;;;;6.18;5.68;;;6.30;99.90;;;;;;5056580;28;20223;-75
2023/01/06 21:13:04;;;;;;;6.90;6.20;;;6.30;99.90;;;;;;5056697;28;20204;-74
2023/01/06 21:15:31;;;;;;;6.78;6.22;;;6.30;99.90;;;;;;5056303;28;20597;-74
2023/01/06 21:17:58;;;;;;;5.80;5.38;;;6.30;99.90;;;;;;5056092;28;20208;-74
2023/01/06 21:20:24;;;;;;;6.78;6.00;;;6.30;99.90;;;;;;5056323;28;20204;-74
2023/01/06 21:22:52;;;;;;;7.15;6.60;;;6.20;99.90;;;;;;5056331;28;20208;-74
2023/01/06 21:25:19;;;;;;;6.05;5.47;;;6.20;99.90;;;;;;5057045;28;20225;-77
2023/01/06 21:27:46;;;;;;;6.53;5.85;;;6.20;99.90;;;;;;5056984;28;20205;-74
2023/01/06 21:30:14;;;;;;;7.03;6.43;;;6.20;99.90;;;;;;5056204;28;20197;-74
2023/01/06 21:32:41;;;;;;;6.78;6.15;;;6.20;99.90;;;;;;5055309;28;20197;-74
2023/01/06 21:35:08;;;;;;;6.88;5.68;;;6.20;99.90;;;;;;5056972;28;20229;-74
2023/01/06 21:37:35;;;;;;;6.20;5.70;;;6.10;99.90;;;;;;5056072;28;20312;-74
2023/01/06 21:40:06;;;;;;;6.05;5.55;;;6.10;99.90;;;;;;5056027;28;20209;-74
2023/01/06 21:45:17;;;;;;;6.20;5.70;;;6.10;99.90;;;;;;5055939;28;20219;-76
2023/01/06 21:47:44;;;;;;;7.05;5.18;;;6.00;99.90;;;;;;5056815;28;20201;-75
2023/01/06 21:50:11;;;;;;;6.93;6.22;;;6.00;99.90;;;;;;5055965;28;20201;-75
2023/01/06 21:52:37;;;;;;;6.50;5.90;;;6.00;99.90;;;;;;5055806;28;20220;-75
2023/01/06 21:55:06;;;;;;;6.10;5.60;;;5.90;99.90;;;;;;5056034;28;20221;-75